createdAt,value
2022-12-11T00:01:50.893Z,100023.61
2022-12-11T00:04:21.383Z,100023.95
2022-12-11T00:06:51.841Z,100030.83
2022-12-11T00:09:23.672Z,100024.45
2022-12-11T00:11:54.229Z,100033.59
2022-12-11T00:14:24.836Z,100037.37
2022-12-11T00:16:55.413Z,100035.50
2022-12-11T00:19:26.054Z,100034.98
2022-12-11T00:21:56.525Z,100031.35
2022-12-11T00:24:27.019Z,100034.29
2022-12-11T00:26:57.374Z,100030.16
2022-12-11T00:29:27.792Z,100033.60
2022-12-11T00:31:58.303Z,100031.35
2022-12-11T00:34:29.128Z,100034.63
2022-12-11T00:37:00.454Z,100037.39
2022-12-11T00:39:31.068Z,100037.90
2022-12-11T00:42:01.532Z,100036.85
2022-12-11T00:44:31.986Z,100036.34
2022-12-11T00:47:02.443Z,100037.55
2022-12-11T00:49:32.883Z,100034.09
2022-12-11T00:52:03.302Z,100022.88
2022-12-11T00:54:34.800Z,100019.43
2022-12-11T00:57:05.092Z,100017.17
2022-12-11T00:59:35.508Z,100013.38
2022-12-11T01:02:06.164Z,100014.77
2022-12-11T01:04:38.239Z,100015.27
2022-12-11T01:07:08.800Z,100020.27
2022-12-11T01:09:56.816Z,100018.38
2022-12-11T01:12:28.589Z,100019.92
2022-12-11T01:14:58.944Z,100022.15
2022-12-11T01:17:29.294Z,100027.52
2022-12-11T01:19:59.736Z,100023.89
2022-12-11T01:22:30.250Z,100028.21
2022-12-11T01:25:00.714Z,100028.55
2022-12-11T01:27:31.262Z,100026.15
2022-12-11T01:30:01.713Z,100026.32
2022-12-11T01:32:32.215Z,100026.83
2022-12-11T01:35:03.591Z,100029.42
2022-12-11T01:37:32.478Z,100033.21
2022-12-11T01:40:03.526Z,100037.17
2022-12-11T01:42:34.727Z,100031.98
2022-12-11T01:45:33.334Z,100037.16
2022-12-11T01:48:09.731Z,100036.82
2022-12-11T01:50:47.023Z,100031.13
2022-12-11T01:53:22.327Z,100028.87
2022-12-11T01:55:56.146Z,100028.88
2022-12-11T01:58:30.561Z,100028.35
2022-12-11T02:01:02.009Z,100036.12
2022-12-11T02:03:33.169Z,100032.16
2022-12-11T02:06:03.841Z,100026.80
2022-12-11T02:08:34.705Z,100028.90
2022-12-11T02:11:14.072Z,100016.99
2022-12-11T02:13:50.182Z,100017.86
2022-12-11T02:16:27.645Z,100026.48
2022-12-11T02:19:09.898Z,100028.39
2022-12-11T02:21:47.845Z,100035.80
2022-12-11T02:24:30.934Z,100038.23
2022-12-11T02:27:20.858Z,100040.48
2022-12-11T02:29:55.328Z,100038.05
2022-12-11T02:32:31.560Z,100043.39
2022-12-11T02:35:09.595Z,100046.66
2022-12-11T02:37:43.339Z,100044.08
2022-12-11T02:40:18.092Z,100048.73
2022-12-11T02:42:50.428Z,100045.79
2022-12-11T02:45:23.306Z,100038.90
2022-12-11T02:47:54.332Z,100031.98
2022-12-11T02:50:26.528Z,100033.36
2022-12-11T02:52:58.861Z,100027.83
2022-12-11T02:55:34.039Z,100027.31
2022-12-11T02:58:07.501Z,100027.46
2022-12-11T03:00:38.081Z,100030.06
2022-12-11T03:03:09.467Z,100034.54
2022-12-11T03:05:40.578Z,100038.67
2022-12-11T03:08:12.201Z,100032.80
2022-12-11T03:10:42.620Z,100033.14
2022-12-11T03:13:14.583Z,100034.86
2022-12-11T03:15:56.563Z,100039.16
2022-12-11T03:18:34.496Z,100034.67
2022-12-11T03:21:09.346Z,100032.08
2022-12-11T03:23:48.694Z,100033.96
2022-12-11T03:26:24.164Z,100032.23
2022-12-11T03:29:00.930Z,100032.21
2022-12-11T03:31:38.521Z,100028.73
2022-12-11T03:34:15.055Z,100032.52
2022-12-11T03:36:48.479Z,100030.79
2022-12-11T03:39:24.067Z,100026.98
2022-12-11T03:41:56.967Z,100035.43
2022-12-11T03:44:30.148Z,100036.64
2022-12-11T03:47:03.593Z,100037.30
2022-12-11T03:49:39.713Z,100040.23
2022-12-11T03:52:13.100Z,100041.77
2022-12-11T03:54:47.800Z,100035.38
2022-12-11T03:57:23.173Z,100041.42
2022-12-11T03:59:53.716Z,100042.10
2022-12-11T04:02:24.151Z,100036.38
2022-12-11T04:04:54.788Z,100033.97
2022-12-11T04:07:25.265Z,100034.64
2022-12-11T04:09:55.723Z,100029.98
2022-12-11T04:12:26.457Z,100029.08
2022-12-11T04:15:03.089Z,100023.39
2022-12-11T04:17:54.287Z,100025.60
2022-12-11T04:20:42.738Z,100030.62
2022-12-11T04:23:33.759Z,100029.58
2022-12-11T04:26:08.715Z,100033.02
2022-12-11T04:28:43.105Z,100035.27
2022-12-11T04:31:16.931Z,100038.41
2022-12-11T04:33:47.400Z,100038.58
2022-12-11T04:36:18.010Z,100032.52
2022-12-11T04:38:48.497Z,100027.70
2022-12-11T04:41:19.887Z,100028.39
2022-12-11T04:43:50.422Z,100027.86
2022-12-11T04:46:23.407Z,100034.27
2022-12-11T04:48:57.611Z,100031.34
2022-12-11T04:51:29.425Z,100029.95
2022-12-11T04:54:00.845Z,100026.51
2022-12-11T04:56:31.392Z,100024.80
2022-12-11T04:59:02.032Z,100023.42
2022-12-11T05:01:32.476Z,100029.98
2022-12-11T05:04:02.963Z,100027.38
2022-12-11T05:06:33.412Z,100025.65
2022-12-11T05:09:04.389Z,100024.63
2022-12-11T05:11:34.787Z,100024.63
2022-12-11T05:14:05.652Z,100034.80
2022-12-11T05:16:36.097Z,100031.35
2022-12-11T05:19:06.469Z,100027.73
2022-12-11T05:21:36.986Z,100027.58
2022-12-11T05:24:08.574Z,100027.55
2022-12-11T05:26:39.120Z,100026.34
2022-12-11T05:29:09.560Z,100019.08
2022-12-11T05:31:40.018Z,100014.59
2022-12-11T05:34:10.453Z,100017.35
2022-12-11T05:36:40.996Z,100020.98
2022-12-11T05:39:12.521Z,100015.45
2022-12-11T05:41:42.969Z,100008.55
2022-12-11T05:44:14.669Z,100003.19
2022-12-11T05:46:45.198Z,100003.70
2022-12-11T05:49:19.625Z,100004.23
2022-12-11T05:51:50.419Z,100001.30
2022-12-11T05:54:20.791Z,100000.62
2022-12-11T05:56:52.210Z,100001.99
2022-12-11T05:59:21.183Z,100002.34
2022-12-11T06:01:51.673Z,99996.48
2022-12-11T06:04:22.212Z,99988.55
2022-12-11T06:06:54.638Z,99987.67
2022-12-11T06:09:25.087Z,99986.14
2022-12-11T06:11:55.384Z,99984.09
2022-12-11T06:14:26.677Z,99979.97
2022-12-11T06:16:55.514Z,99983.10
2022-12-11T06:19:25.882Z,99985.20
2022-12-11T06:21:56.187Z,99987.31
2022-12-11T06:24:26.611Z,99989.39
2022-12-11T06:26:56.923Z,99988.55
2022-12-11T06:29:27.333Z,99983.92
2022-12-11T06:31:57.846Z,99983.93
2022-12-11T06:34:28.826Z,99985.34
2022-12-11T06:36:59.231Z,99983.12
2022-12-11T06:39:32.135Z,99983.48
2022-12-11T06:42:02.497Z,99979.89
2022-12-11T06:44:36.064Z,99977.84
2022-12-11T06:47:07.313Z,99977.35
2022-12-11T06:49:36.331Z,99976.48
2022-12-11T06:52:07.998Z,99986.51
2022-12-11T06:54:38.350Z,99988.77
2022-12-11T06:57:10.237Z,99984.98
2022-12-11T06:59:40.930Z,99981.20
2022-12-11T07:02:13.651Z,99979.14
2022-12-11T07:04:44.905Z,99976.21
2022-12-11T07:07:13.825Z,99984.33
2022-12-11T07:09:44.485Z,99980.87
2022-12-11T07:12:14.982Z,99982.08
2022-12-11T07:14:45.508Z,99982.77
2022-12-11T07:17:15.887Z,99985.35
2022-12-11T07:19:46.513Z,99987.08
2022-12-11T07:22:17.017Z,99990.17
2022-12-11T07:24:47.462Z,99990.87
2022-12-11T07:27:17.899Z,99991.55
2022-12-11T07:29:48.332Z,100001.73
2022-12-11T07:32:18.815Z,100009.64
2022-12-11T07:34:52.079Z,100014.98
2022-12-11T07:37:23.206Z,100011.69
2022-12-11T07:39:53.531Z,100009.95
2022-12-11T07:42:23.970Z,100009.08
2022-12-11T07:45:12.265Z,100008.71
2022-12-11T07:48:04.657Z,100010.92
2022-12-11T07:50:38.136Z,100010.39
2022-12-11T07:53:11.027Z,100007.42
2022-12-11T07:56:05.750Z,100003.27
2022-12-11T07:58:36.981Z,100001.17
2022-12-11T08:01:12.309Z,100003.73
2022-12-11T08:03:43.427Z,100005.79
2022-12-11T08:06:14.221Z,100007.66
2022-12-11T08:08:45.081Z,100009.38
2022-12-11T08:11:16.881Z,100008.16
2022-12-11T08:13:47.341Z,100004.52
2022-12-11T08:16:18.864Z,99997.60
2022-12-11T08:18:50.395Z,99997.74
2022-12-11T08:21:23.325Z,100000.83
2022-12-11T08:23:54.663Z,100003.21
2022-12-11T08:26:25.102Z,100005.41
2022-12-11T08:28:55.857Z,100001.05
2022-12-11T08:31:26.757Z,100006.55
2022-12-11T08:33:58.233Z,100005.30
2022-12-11T08:36:29.128Z,100006.81
2022-12-11T08:38:59.460Z,100004.33
2022-12-11T08:41:31.299Z,100003.58
2022-12-11T08:44:01.906Z,100002.70
2022-12-11T08:46:34.513Z,100006.96
2022-12-11T08:49:05.041Z,100002.91
2022-12-11T08:51:35.651Z,100004.20
2022-12-11T08:54:06.248Z,100002.42
2022-12-11T08:56:36.592Z,100001.86
2022-12-11T08:59:07.541Z,100000.09
2022-12-11T09:01:38.129Z,100002.33
2022-12-11T09:04:08.645Z,100004.71
2022-12-11T09:06:40.264Z,100006.81
2022-12-11T09:09:13.210Z,100001.99
2022-12-11T09:11:46.759Z,100000.29
2022-12-11T09:14:17.697Z,100001.04
2022-12-11T09:16:50.121Z,100001.75
2022-12-11T09:19:21.245Z,99997.30
2022-12-11T09:21:53.512Z,99997.11
2022-12-11T09:24:25.986Z,100001.43
2022-12-11T09:27:01.485Z,100001.77
2022-12-11T09:29:34.210Z,100002.83
2022-12-11T09:32:04.821Z,100001.44
2022-12-11T09:34:35.629Z,100001.58
2022-12-11T09:37:09.898Z,100000.54
2022-12-11T09:39:43.653Z,100003.14
2022-12-11T09:42:22.124Z,100003.98
2022-12-11T09:44:56.016Z,100001.91
2022-12-11T09:47:33.103Z,100000.83
2022-12-11T09:50:16.948Z,100000.11
2022-12-11T09:53:02.402Z,99999.02
2022-12-11T09:55:41.703Z,100004.89
2022-12-11T09:58:23.528Z,99997.44
2022-12-11T10:01:05.794Z,99996.75
2022-12-11T10:04:05.625Z,99994.17
2022-12-11T10:06:48.424Z,99991.23
2022-12-11T10:09:27.776Z,99989.35
2022-12-11T10:12:08.783Z,99993.85
2022-12-11T10:14:49.475Z,99991.45
2022-12-11T10:17:26.987Z,99983.67
2022-12-11T10:19:59.135Z,99978.11
2022-12-11T10:22:33.600Z,99978.77
2022-12-11T10:25:11.326Z,99975.95
2022-12-11T10:27:44.835Z,99974.27
2022-12-11T10:30:20.408Z,99977.02
2022-12-11T10:33:02.311Z,99978.58
2022-12-11T10:35:37.632Z,99980.66
2022-12-11T10:38:26.272Z,99978.55
2022-12-11T10:40:59.280Z,99970.94
2022-12-11T10:43:38.534Z,99966.96
2022-12-11T10:46:15.745Z,99961.94
2022-12-11T10:48:50.258Z,99959.12
2022-12-11T10:51:22.129Z,99953.22
2022-12-11T10:54:04.059Z,99952.13
2022-12-11T10:56:39.057Z,99943.09
2022-12-11T10:59:22.650Z,99939.90
2022-12-11T11:01:54.639Z,99937.69
2022-12-11T11:04:32.171Z,99937.91
2022-12-11T11:07:13.381Z,99932.46
2022-12-11T11:09:44.247Z,99929.27
2022-12-11T11:12:27.317Z,99927.85
2022-12-11T11:15:06.800Z,99923.98
2022-12-11T11:17:54.468Z,99922.38
2022-12-11T11:20:28.393Z,99919.77
2022-12-11T11:23:01.708Z,99918.55
2022-12-11T11:25:34.560Z,99919.08
2022-12-11T11:28:06.909Z,99913.85
2022-12-11T11:30:40.956Z,99915.56
2022-12-11T11:33:18.721Z,99911.00
2022-12-11T11:35:57.406Z,99905.88
2022-12-11T11:38:31.643Z,99899.28
2022-12-11T11:41:15.045Z,99899.60
2022-12-11T11:43:49.972Z,99898.15
2022-12-11T11:46:25.271Z,99894.78
2022-12-11T11:49:02.353Z,99895.77
2022-12-11T11:51:35.926Z,99892.47
2022-12-11T11:54:17.896Z,99895.87
2022-12-11T11:56:52.774Z,99899.24
2022-12-11T11:59:29.292Z,99898.27
2022-12-11T12:02:00.532Z,99895.31
2022-12-11T12:04:36.995Z,99895.29
2022-12-11T12:07:22.471Z,99893.35
2022-12-11T12:10:00.118Z,99893.15
2022-12-11T12:12:41.710Z,99887.96
2022-12-11T12:15:30.629Z,99887.88
2022-12-11T12:18:11.044Z,99892.34
2022-12-11T12:20:49.326Z,99886.09
2022-12-11T12:23:52.471Z,99886.10
2022-12-11T12:26:29.051Z,99884.90
2022-12-11T12:29:11.352Z,99880.39
2022-12-11T12:31:56.969Z,99883.98
2022-12-11T12:34:42.425Z,99881.95
2022-12-11T12:37:22.115Z,99886.33
2022-12-11T12:40:02.238Z,99888.26
2022-12-11T12:42:41.787Z,99882.53
2022-12-11T12:45:25.252Z,99880.83
2022-12-11T12:47:55.860Z,99879.27
2022-12-11T12:50:30.460Z,99876.27
2022-12-11T12:53:01.416Z,99875.23
2022-12-11T12:55:34.047Z,99875.89
2022-12-11T12:58:07.025Z,99874.12
2022-12-11T13:00:39.920Z,99870.81
2022-12-11T13:03:18.285Z,99871.16
2022-12-11T13:05:59.640Z,99869.90
2022-12-11T13:08:32.691Z,99864.02
2022-12-11T13:11:07.395Z,99860.66
2022-12-11T13:13:43.293Z,99859.21
2022-12-11T13:16:35.554Z,99859.06
2022-12-11T13:19:17.292Z,99858.10
2022-12-11T13:21:58.337Z,99860.17
2022-12-11T13:24:30.777Z,99861.04
2022-12-11T13:27:11.974Z,99856.36
2022-12-11T13:29:43.717Z,99859.39
2022-12-11T13:32:31.913Z,99860.86
2022-12-11T13:35:07.358Z,99863.05
2022-12-11T13:37:42.143Z,99870.11
2022-12-11T13:40:20.969Z,99871.98
2022-12-11T13:42:56.709Z,99868.13
2022-12-11T13:45:31.254Z,99875.02
2022-12-11T13:48:02.516Z,99875.32
2022-12-11T13:50:36.149Z,99879.07
2022-12-11T13:53:08.182Z,99879.65
2022-12-11T13:55:38.693Z,99883.86
2022-12-11T13:58:19.746Z,99884.08
2022-12-11T14:01:04.028Z,99878.77
2022-12-11T14:03:35.178Z,99884.85
2022-12-11T14:06:14.884Z,99885.35
2022-12-11T14:08:53.222Z,99886.20
2022-12-11T14:11:29.326Z,99884.15
2022-12-11T14:14:01.814Z,99885.88
2022-12-11T14:16:33.218Z,99892.09
2022-12-11T14:19:07.188Z,99894.52
2022-12-11T14:21:38.143Z,99895.41
2022-12-11T14:24:13.230Z,99894.44
2022-12-11T14:26:53.517Z,99894.30
2022-12-11T14:29:33.073Z,99894.51
2022-12-11T14:32:06.461Z,99890.54
2022-12-11T14:34:40.729Z,99893.51
2022-12-11T14:37:12.083Z,99896.67
2022-12-11T14:39:42.205Z,99897.92
2022-12-11T14:42:16.672Z,99897.97
2022-12-11T14:44:53.221Z,99905.46
2022-12-11T14:47:27.066Z,99909.80
2022-12-11T14:50:02.550Z,99912.05
2022-12-11T14:52:37.570Z,99915.69
2022-12-11T14:55:14.262Z,99915.36
2022-12-11T14:57:49.118Z,99918.99
2022-12-11T15:00:30.311Z,99915.19
2022-12-11T15:03:04.383Z,99920.91
2022-12-11T15:05:40.846Z,99921.95
2022-12-11T15:08:31.237Z,99922.48
2022-12-11T15:11:08.022Z,99924.20
2022-12-11T15:13:47.499Z,99923.36
2022-12-11T15:16:18.790Z,99926.86
2022-12-11T15:18:49.344Z,99925.46
2022-12-11T15:21:29.078Z,99930.16
2022-12-11T15:24:01.597Z,99927.96
2022-12-11T15:26:41.267Z,99930.76
2022-12-11T15:29:27.714Z,99931.48
2022-12-11T15:32:18.575Z,99929.23
2022-12-11T15:34:50.979Z,99930.09
2022-12-11T15:37:27.451Z,99926.83
2022-12-11T15:39:59.941Z,99923.54
2022-12-11T15:42:33.301Z,99926.83
2022-12-11T15:45:06.653Z,99928.23
2022-12-11T15:47:37.375Z,99926.02
2022-12-11T15:50:18.552Z,99929.15
2022-12-11T15:52:49.731Z,99927.98
2022-12-11T15:55:21.517Z,99928.86
2022-12-11T15:57:55.482Z,99934.25
2022-12-11T16:00:27.637Z,99932.02
2022-12-11T16:02:58.943Z,99932.02
2022-12-11T16:05:29.030Z,99932.73
2022-12-11T16:08:00.523Z,99935.52
2022-12-11T16:10:32.102Z,99932.44
2022-12-11T16:13:02.808Z,99934.00
2022-12-11T16:15:33.327Z,99932.80
2022-12-11T16:18:06.278Z,99935.55
2022-12-11T16:20:37.986Z,99936.07
2022-12-11T16:23:09.299Z,99935.19
2022-12-11T16:25:39.839Z,99930.68
2022-12-11T16:28:12.706Z,99929.98
2022-12-11T16:30:44.451Z,99929.12
2022-12-11T16:33:15.068Z,99926.86
2022-12-11T16:35:45.653Z,99927.03
2022-12-11T16:38:16.135Z,99926.16
2022-12-11T16:40:46.614Z,99925.83
2022-12-11T16:43:17.019Z,99923.73
2022-12-11T16:45:49.373Z,99920.63
2022-12-11T16:48:20.211Z,99913.52
2022-12-11T16:50:53.780Z,99914.05
2022-12-11T16:53:24.560Z,99915.79
2022-12-11T16:55:55.235Z,99914.56
2022-12-11T16:58:25.726Z,99910.05
2022-12-11T17:01:02.463Z,99912.13
2022-12-11T17:03:33.631Z,99916.42
2022-12-11T17:06:06.924Z,99915.89
2022-12-11T17:08:37.776Z,99918.66
2022-12-11T17:11:10.167Z,99921.05
2022-12-11T17:13:41.805Z,99919.30
2022-12-11T17:16:15.111Z,99920.85
2022-12-11T17:18:46.016Z,99923.79
2022-12-11T17:21:19.429Z,99925.17
2022-12-11T17:23:50.541Z,99924.81
2022-12-11T17:26:21.356Z,99922.73
2022-12-11T17:28:52.152Z,99922.20
2022-12-11T17:31:22.678Z,99922.04
2022-12-11T17:33:54.044Z,99925.16
2022-12-11T17:36:23.309Z,99925.86
2022-12-11T17:38:54.197Z,99927.56
2022-12-11T17:41:24.748Z,99927.57
2022-12-11T17:43:56.591Z,99928.25
2022-12-11T17:46:27.281Z,99927.55
2022-12-11T17:49:00.220Z,99930.48
2022-12-11T17:51:31.024Z,99928.06
2022-12-11T17:54:02.091Z,99923.73
2022-12-11T17:56:36.170Z,99923.73
2022-12-11T17:59:06.642Z,99924.27
2022-12-11T18:01:37.665Z,99923.36
2022-12-11T18:04:08.176Z,99916.45
2022-12-11T18:06:38.838Z,99919.55
2022-12-11T18:09:10.239Z,99916.45
2022-12-11T18:11:40.823Z,99912.30
2022-12-11T18:14:16.878Z,99913.33
2022-12-11T18:16:48.458Z,99916.27
2022-12-11T18:19:22.722Z,99918.52
2022-12-11T18:21:53.891Z,99918.86
2022-12-11T18:24:25.908Z,99919.21
2022-12-11T18:26:56.476Z,99920.43
2022-12-11T18:29:27.278Z,99921.83
2022-12-11T18:31:57.718Z,99923.89
2022-12-11T18:34:28.222Z,99920.43
2022-12-11T18:36:58.714Z,99920.25
2022-12-11T18:39:29.143Z,99921.13
2022-12-11T18:42:31.064Z,99923.20
2022-12-11T18:44:50.095Z,99922.67
2022-12-11T18:47:21.870Z,99926.48
2022-12-11T18:49:52.539Z,99925.63
2022-12-11T18:52:23.176Z,99927.00
2022-12-11T18:54:53.632Z,99930.11
2022-12-11T18:57:24.080Z,99932.55
2022-12-11T18:59:55.206Z,99928.56
2022-12-11T19:02:25.708Z,99924.08
2022-12-11T19:04:56.408Z,99927.39
2022-12-11T19:07:27.049Z,99924.45
2022-12-11T19:09:57.560Z,99925.33
2022-12-11T19:12:28.086Z,99924.11
2022-12-11T19:14:58.544Z,99920.66
2022-12-11T19:17:29.171Z,99920.84
2022-12-11T19:20:05.349Z,99921.38
2022-12-11T19:22:49.786Z,99921.23
2022-12-11T19:25:20.494Z,99920.20
2022-12-11T19:27:50.986Z,99918.84
2022-12-11T19:30:21.916Z,99919.52
2022-12-11T19:32:52.592Z,99910.06
2022-12-11T19:35:23.146Z,99919.90
2022-12-11T19:37:53.791Z,99919.38
2022-12-11T19:40:26.686Z,99920.09
2022-12-11T19:42:57.325Z,99920.62
2022-12-11T19:45:29.126Z,99916.98
2022-12-11T19:47:59.604Z,99914.58
2022-12-11T19:50:30.164Z,99913.02
2022-12-11T19:53:00.833Z,99912.34
2022-12-11T19:55:31.368Z,99908.52
2022-12-11T19:58:02.021Z,99909.89
2022-12-11T20:00:32.567Z,99906.77
2022-12-11T20:03:03.390Z,99907.45
2022-12-11T20:05:35.937Z,99907.44
2022-12-11T20:08:42.325Z,99906.73
2022-12-11T20:11:07.247Z,99907.56
2022-12-11T20:13:40.718Z,99905.79
2022-12-11T20:16:13.208Z,99912.88
2022-12-11T20:18:43.848Z,99910.09
2022-12-11T20:21:21.971Z,99908.84
2022-12-11T20:23:55.077Z,99906.09
2022-12-11T20:26:27.781Z,99905.75
2022-12-11T20:28:59.616Z,99902.29
2022-12-11T20:31:30.531Z,99900.20
2022-12-11T20:34:01.564Z,99905.39
2022-12-11T20:36:32.119Z,99908.15
2022-12-11T20:39:02.601Z,99908.84
2022-12-11T20:41:33.155Z,99907.47
2022-12-11T20:44:03.906Z,99906.98
2022-12-11T20:46:34.356Z,99911.16
2022-12-11T20:49:05.054Z,99910.00
2022-12-11T20:51:35.513Z,99910.58
2022-12-11T20:54:06.331Z,99909.58
2022-12-11T20:56:37.030Z,99909.11
2022-12-11T20:59:07.552Z,99911.70
2022-12-11T21:01:38.084Z,99912.05
2022-12-11T21:04:08.504Z,99908.92
2022-12-11T21:06:41.941Z,99911.86
2022-12-11T21:09:17.856Z,99913.92
2022-12-11T21:11:48.459Z,99915.31
2022-12-11T21:14:20.461Z,99913.08
2022-12-11T21:16:51.096Z,99915.68
2022-12-11T21:19:21.825Z,99913.63
2022-12-11T21:21:53.641Z,99914.37
2022-12-11T21:24:26.368Z,99919.39
2022-12-11T21:26:59.129Z,99918.69
2022-12-11T21:29:30.535Z,99919.20
2022-12-11T21:32:01.421Z,99920.59
2022-12-11T21:34:31.962Z,99920.94
2022-12-11T21:37:02.506Z,99920.58
2022-12-11T21:39:38.953Z,99923.50
2022-12-11T21:42:10.026Z,99923.00
2022-12-11T21:47:31.150Z,99927.51
2022-12-11T21:50:01.632Z,99925.42
2022-12-11T21:52:32.147Z,99928.71
2022-12-11T21:55:03.525Z,99930.09
2022-12-11T21:57:32.554Z,99930.59
2022-12-11T22:00:04.487Z,99930.59
2022-12-11T22:02:42.639Z,99933.89
2022-12-11T22:05:13.484Z,99933.90
2022-12-11T22:07:44.194Z,99937.36
2022-12-11T22:10:14.834Z,99936.85
2022-12-11T22:12:45.305Z,99939.30
2022-12-11T22:15:16.024Z,99937.24
2022-12-11T22:17:46.610Z,99933.94
2022-12-11T22:20:17.102Z,99934.60
2022-12-11T22:22:47.873Z,99935.46
2022-12-11T22:25:19.098Z,99941.85
2022-12-11T22:27:50.952Z,99943.38
2022-12-11T22:30:21.658Z,99942.84
2022-12-11T22:32:51.977Z,99944.05
2022-12-11T22:35:27.022Z,99949.23
2022-12-11T22:37:57.891Z,99947.48
2022-12-11T22:40:28.438Z,99952.82
2022-12-11T22:42:59.729Z,99954.72
2022-12-11T22:45:28.636Z,99952.83
2022-12-11T22:47:59.020Z,99954.35
2022-12-11T22:50:29.494Z,99952.61
2022-12-11T22:52:59.884Z,99952.05
2022-12-11T22:55:30.406Z,99951.38
2022-12-11T22:58:01.182Z,99949.64
2022-12-11T23:00:31.697Z,99951.34
2022-12-11T23:03:02.361Z,99952.35
2022-12-11T23:05:32.778Z,99953.55
2022-12-11T23:08:03.395Z,99954.24
2022-12-11T23:10:33.970Z,99957.71
2022-12-11T23:13:04.441Z,99958.22
2022-12-11T23:15:34.863Z,99959.10
2022-12-11T23:18:05.527Z,99960.65
2022-12-11T23:20:36.087Z,99956.84
2022-12-11T23:23:06.508Z,99956.33
2022-12-11T23:25:36.879Z,99959.78
2022-12-11T23:28:07.563Z,99960.83
2022-12-11T23:30:37.944Z,99962.71
2022-12-11T23:33:08.380Z,99963.41
2022-12-11T23:35:38.837Z,99963.08
2022-12-11T23:38:09.285Z,99961.00
2022-12-11T23:40:40.106Z,99959.25
2022-12-11T23:43:10.562Z,99958.58
2022-12-11T23:45:43.788Z,99955.98
2022-12-11T23:48:14.675Z,99952.36
2022-12-11T23:50:45.675Z,99948.55
2022-12-11T23:53:16.179Z,99944.58
2022-12-11T23:55:47.633Z,99945.10
2022-12-11T23:58:18.061Z,99948.24
